CSCL Long Beach — VRCZ7 — position and weather

sailwx.info

Track history (hours):
 
Tides and Currents Weather Stations Pressure Air Temp Water Temp Dewpoint Dewpoint Depression Visibility Wind Speed Wind Dir Waves Ship Positions

CSCL Long Beach

Last reported at 2014-Sep-05 22:26 UTC. Time now 2014-Sep-18 09:42 UTC.
Position N 01°11' E 103°49'.
Warning: this ship's position is 12 days out of date.

Length 336.7 m; beam 45.6 m; draft 15 m.

Type: Cargo ship. MMSI: 477883900.

Date/timePositionNaut miles runAvg speedWind from/ knotsBaromVisibWave heightAir tempDewpointWater temp
2014-Sep-05 22:26N 01°11' E 103°49'1416.4
2014-Sep-05 21:34N 01°16' E 104°03'  
2014-Sep-02 16:09N 22°34' E 114°18'2 2.6
2014-Sep-02 15:33N 22°34' E 114°16'0 0.1
2014-Sep-02 14:31N 22°34' E 114°16'0 0.0
2014-Sep-02 13:31N 22°34' E 114°16'0 0.0
2014-Sep-02 12:31N 22°34' E 114°16'0 0.0
2014-Sep-02 11:31N 22°34' E 114°16'0 0.0
2014-Sep-02 10:25N 22°34' E 114°16'0 0.0
2014-Sep-02 09:31N 22°34' E 114°16'0 0.0
2014-Sep-02 08:31N 22°34' E 114°16'0 0.1
2014-Sep-02 07:31N 22°34' E 114°16'0 0.1
2014-Sep-02 06:31N 22°34' E 114°16'0 0.0
2014-Sep-02 05:31N 22°34' E 114°16'0 0.0
2014-Sep-02 04:31N 22°34' E 114°16'0 0.0
2014-Sep-02 03:25N 22°34' E 114°16'0 0.1
2014-Sep-02 02:25N 22°34' E 114°16'0 0.1
2014-Sep-02 01:25N 22°34' E 114°16'0 0.0
2014-Sep-02 00:31N 22°34' E 114°16'0 0.1
2014-Sep-01 23:31N 22°34' E 114°16'0 0.0
2014-Sep-01 22:31N 22°34' E 114°16'0 0.0
2014-Sep-01 21:31N 22°34' E 114°16'0 0.1
2014-Sep-01 20:25N 22°34' E 114°16'0 0.1
2014-Sep-01 19:32N 22°34' E 114°16'20810.4
2014-Aug-31 23:32N 23°26' E 117°55'1413.0
2014-Aug-31 22:29N 23°35' E 118°06'1312.8
2014-Aug-31 21:30N 23°43' E 118°17'1212.8
2014-Aug-31 20:33N 23°48' E 118°29'1212.3
2014-Aug-31 19:32N 23°56' E 118°39'1312.2
2014-Aug-31 18:30N 24°06' E 118°47'1212.2
2014-Aug-31 17:33N 24°12' E 118°58'1211.6
2014-Aug-31 16:32N 24°21' E 119°06'1111.4
2014-Aug-31 15:33N 24°30' E 119°13'1111.4
2014-Aug-31 14:33N 24°38' E 119°22'1511.2
2014-Aug-31 13:14N 24°49' E 119°33'811.4
2014-Aug-31 12:33N 24°54' E 119°40'2311.2
2014-Aug-31 10:32N 25°09' E 119°58'29415.9
2014-Aug-30 16:04N 29°31' E 122°30'916.9
2014-Aug-30 15:33N 29°39' E 122°26'1312.8
2014-Aug-30 14:33N 29°48' E 122°15'1212.4
2014-Aug-30 13:33N 29°55' E 122°04'7 6.4
2014-Aug-30 12:29N 29°56' E 121°56'0 0.0
2014-Aug-30 11:29N 29°56' E 121°56'0 0.0
2014-Aug-30 10:29N 29°56' E 121°56'0 0.0
2014-Aug-30 09:29N 29°56' E 121°56'0 0.0
2014-Aug-30 08:29N 29°56' E 121°56'0 0.0
2014-Aug-30 07:29N 29°56' E 121°56'0 0.0
2014-Aug-30 06:29N 29°56' E 121°56'0 0.0
2014-Aug-30 05:29N 29°56' E 121°56'0 0.0
2014-Aug-30 04:29N 29°56' E 121°56'0 0.0
2014-Aug-30 03:29N 29°56' E 121°56'0 0.0
2014-Aug-30 02:29N 29°56' E 121°56'0 0.0
2014-Aug-30 01:23N 29°56' E 121°56'0 0.0
2014-Aug-30 00:29N 29°56' E 121°56'0 0.0
2014-Aug-29 23:29N 29°56' E 121°56'0 0.0
2014-Aug-29 22:29N 29°56' E 121°56'0 0.0
2014-Aug-29 21:29N 29°56' E 121°56'0 0.0
2014-Aug-29 20:29N 29°56' E 121°56'0 0.0
2014-Aug-29 19:29N 29°56' E 121°56'0 0.0
2014-Aug-29 18:23N 29°56' E 121°56'0 0.0
2014-Aug-29 17:32N 29°56' E 121°56'0 0.0
2014-Aug-29 16:29N 29°56' E 121°56'0 0.0
2014-Aug-29 15:32N 29°56' E 121°56'0 0.0
2014-Aug-29 14:32N 29°56' E 121°56'0 0.0
2014-Aug-29 13:32N 29°56' E 121°56'0 0.0
2014-Aug-29 12:29N 29°56' E 121°56'0 0.0
2014-Aug-29 11:29N 29°56' E 121°56'0 0.0
2014-Aug-29 10:32N 29°56' E 121°56'0 0.0
2014-Aug-29 09:32N 29°56' E 121°56'0 0.0
2014-Aug-29 08:29N 29°56' E 121°56'0 0.0
2014-Aug-29 07:32N 29°56' E 121°56'0 0.0
2014-Aug-29 06:23N 29°56' E 121°56'0 0.4
2014-Aug-29 05:33N 29°57' E 121°56'8 8.2
2014-Aug-29 04:34N 29°56' E 122°05'1212.1
2014-Aug-29 03:33N 29°47' E 122°16'8 8.2
2014-Aug-29 02:33N 29°43' E 122°24'5 4.7
2014-Aug-29 01:34N 29°40' E 122°28'1 1.0
2014-Aug-29 00:33N 29°39' E 122°28'0 0.1
2014-Aug-28 23:33N 29°39' E 122°28'0 0.2
2014-Aug-28 22:33N 29°39' E 122°28'0 0.1
2014-Aug-28 21:33N 29°39' E 122°28'0 0.1
2014-Aug-28 20:33N 29°39' E 122°28'0 0.0
2014-Aug-28 19:33N 29°39' E 122°28'0 0.1
2014-Aug-28 18:33N 29°39' E 122°28'0 0.1
2014-Aug-28 17:33N 29°39' E 122°28'0 0.1
2014-Aug-28 16:33N 29°40' E 122°28'0 0.2
2014-Aug-28 15:33N 29°40' E 122°28'0 0.1
2014-Aug-28 14:33N 29°40' E 122°28'0 0.1
2014-Aug-28 13:27N 29°40' E 122°28'0 0.1
2014-Aug-28 12:27N 29°39' E 122°28'0 0.2
2014-Aug-28 11:33N 29°39' E 122°28'0 0.1
2014-Aug-28 10:33N 29°39' E 122°28'0 0.0
2014-Aug-28 09:33N 29°39' E 122°28'0 0.1
2014-Aug-28 08:32N 29°39' E 122°28'0 0.0
2014-Aug-28 07:25N 29°39' E 122°28'0 0.1
2014-Aug-28 06:19N 29°39' E 122°28'0 0.1
2014-Aug-28 05:32N 29°39' E 122°28'0 0.1
2014-Aug-28 04:32N 29°40' E 122°28'0 0.1
2014-Aug-28 03:32N 29°40' E 122°28'1 1.2
2014-Aug-28 02:33N 29°40' E 122°29'1010.2
2014-Aug-28 01:33N 29°42' E 122°41'1212.0
2014-Aug-28 00:33N 29°52' E 122°50'1712.8
2014-Aug-27 23:16N 30°05' E 123°02'1013.0
2014-Aug-27 22:31N 30°14' E 123°02'1313.4
2014-Aug-27 21:33N 30°23' E 122°52'1514.5
2014-Aug-27 20:33N 30°29' E 122°36'1716.7
2014-Aug-27 19:33N 30°33' E 122°18'  
Track history (hours):
 
Tides and Currents Weather Stations Pressure Air Temp Water Temp Dewpoint Dewpoint Depression Visibility Wind Speed Wind Dir Waves Ship Positions

CSCL Long Beach

Last reported at 2014-Sep-05 22:26 UTC. Time now 2014-Sep-18 09:42 UTC.
Position N 01°11' E 103°49'.
Warning: this ship's position is 12 days out of date.

Length 336.7 m; beam 45.6 m; draft 15 m.

Type: Cargo ship. MMSI: 477883900.

Date/timePositionNaut miles runAvg speedWind from/ knotsBaromVisibWave heightAir tempDewpointWater temp
2014-Sep-05 22:26N 01°11' E 103°49'1416.4
2014-Sep-05 21:34N 01°16' E 104°03'  
2014-Sep-02 16:09N 22°34' E 114°18'2 2.6
2014-Sep-02 15:33N 22°34' E 114°16'0 0.1
2014-Sep-02 14:31N 22°34' E 114°16'0 0.0
2014-Sep-02 13:31N 22°34' E 114°16'0 0.0
2014-Sep-02 12:31N 22°34' E 114°16'0 0.0
2014-Sep-02 11:31N 22°34' E 114°16'0 0.0
2014-Sep-02 10:25N 22°34' E 114°16'0 0.0
2014-Sep-02 09:31N 22°34' E 114°16'0 0.0
2014-Sep-02 08:31N 22°34' E 114°16'0 0.1
2014-Sep-02 07:31N 22°34' E 114°16'0 0.1
2014-Sep-02 06:31N 22°34' E 114°16'0 0.0
2014-Sep-02 05:31N 22°34' E 114°16'0 0.0
2014-Sep-02 04:31N 22°34' E 114°16'0 0.0
2014-Sep-02 03:25N 22°34' E 114°16'0 0.1
2014-Sep-02 02:25N 22°34' E 114°16'0 0.1
2014-Sep-02 01:25N 22°34' E 114°16'0 0.0
2014-Sep-02 00:31N 22°34' E 114°16'0 0.1
2014-Sep-01 23:31N 22°34' E 114°16'0 0.0
2014-Sep-01 22:31N 22°34' E 114°16'0 0.0
2014-Sep-01 21:31N 22°34' E 114°16'0 0.1
2014-Sep-01 20:25N 22°34' E 114°16'0 0.1
2014-Sep-01 19:32N 22°34' E 114°16'20810.4
2014-Aug-31 23:32N 23°26' E 117°55'1413.0
2014-Aug-31 22:29N 23°35' E 118°06'1312.8
2014-Aug-31 21:30N 23°43' E 118°17'1212.8
2014-Aug-31 20:33N 23°48' E 118°29'1212.3
2014-Aug-31 19:32N 23°56' E 118°39'1312.2
2014-Aug-31 18:30N 24°06' E 118°47'1212.2
2014-Aug-31 17:33N 24°12' E 118°58'1211.6
2014-Aug-31 16:32N 24°21' E 119°06'1111.4
2014-Aug-31 15:33N 24°30' E 119°13'1111.4
2014-Aug-31 14:33N 24°38' E 119°22'1511.2
2014-Aug-31 13:14N 24°49' E 119°33'811.4
2014-Aug-31 12:33N 24°54' E 119°40'2311.2
2014-Aug-31 10:32N 25°09' E 119°58'29415.9
2014-Aug-30 16:04N 29°31' E 122°30'916.9
2014-Aug-30 15:33N 29°39' E 122°26'1312.8
2014-Aug-30 14:33N 29°48' E 122°15'1212.4
2014-Aug-30 13:33N 29°55' E 122°04'7 6.4
2014-Aug-30 12:29N 29°56' E 121°56'0 0.0
2014-Aug-30 11:29N 29°56' E 121°56'0 0.0
2014-Aug-30 10:29N 29°56' E 121°56'0 0.0
2014-Aug-30 09:29N 29°56' E 121°56'0 0.0
2014-Aug-30 08:29N 29°56' E 121°56'0 0.0
2014-Aug-30 07:29N 29°56' E 121°56'0 0.0
2014-Aug-30 06:29N 29°56' E 121°56'0 0.0
2014-Aug-30 05:29N 29°56' E 121°56'0 0.0
2014-Aug-30 04:29N 29°56' E 121°56'0 0.0
2014-Aug-30 03:29N 29°56' E 121°56'0 0.0
2014-Aug-30 02:29N 29°56' E 121°56'0 0.0
2014-Aug-30 01:23N 29°56' E 121°56'0 0.0
2014-Aug-30 00:29N 29°56' E 121°56'0 0.0
2014-Aug-29 23:29N 29°56' E 121°56'0 0.0
2014-Aug-29 22:29N 29°56' E 121°56'0 0.0
2014-Aug-29 21:29N 29°56' E 121°56'0 0.0
2014-Aug-29 20:29N 29°56' E 121°56'0 0.0
2014-Aug-29 19:29N 29°56' E 121°56'0 0.0
2014-Aug-29 18:23N 29°56' E 121°56'0 0.0
2014-Aug-29 17:32N 29°56' E 121°56'0 0.0
2014-Aug-29 16:29N 29°56' E 121°56'0 0.0
2014-Aug-29 15:32N 29°56' E 121°56'0 0.0
2014-Aug-29 14:32N 29°56' E 121°56'0 0.0
2014-Aug-29 13:32N 29°56' E 121°56'0 0.0
2014-Aug-29 12:29N 29°56' E 121°56'0 0.0
2014-Aug-29 11:29N 29°56' E 121°56'0 0.0
2014-Aug-29 10:32N 29°56' E 121°56'0 0.0
2014-Aug-29 09:32N 29°56' E 121°56'0 0.0
2014-Aug-29 08:29N 29°56' E 121°56'0 0.0
2014-Aug-29 07:32N 29°56' E 121°56'0 0.0
2014-Aug-29 06:23N 29°56' E 121°56'0 0.4
2014-Aug-29 05:33N 29°57' E 121°56'8 8.2
2014-Aug-29 04:34N 29°56' E 122°05'1212.1
2014-Aug-29 03:33N 29°47' E 122°16'8 8.2
2014-Aug-29 02:33N 29°43' E 122°24'5 4.7
2014-Aug-29 01:34N 29°40' E 122°28'1 1.0
2014-Aug-29 00:33N 29°39' E 122°28'0 0.1
2014-Aug-28 23:33N 29°39' E 122°28'0 0.2
2014-Aug-28 22:33N 29°39' E 122°28'0 0.1
2014-Aug-28 21:33N 29°39' E 122°28'0 0.1
2014-Aug-28 20:33N 29°39' E 122°28'0 0.0
2014-Aug-28 19:33N 29°39' E 122°28'0 0.1
2014-Aug-28 18:33N 29°39' E 122°28'0 0.1
2014-Aug-28 17:33N 29°39' E 122°28'0 0.1
2014-Aug-28 16:33N 29°40' E 122°28'0 0.2
2014-Aug-28 15:33N 29°40' E 122°28'0 0.1
2014-Aug-28 14:33N 29°40' E 122°28'0 0.1
2014-Aug-28 13:27N 29°40' E 122°28'0 0.1
2014-Aug-28 12:27N 29°39' E 122°28'0 0.2
2014-Aug-28 11:33N 29°39' E 122°28'0 0.1
2014-Aug-28 10:33N 29°39' E 122°28'0 0.0
2014-Aug-28 09:33N 29°39' E 122°28'0 0.1
2014-Aug-28 08:32N 29°39' E 122°28'0 0.0
2014-Aug-28 07:25N 29°39' E 122°28'0 0.1
2014-Aug-28 06:19N 29°39' E 122°28'0 0.1
2014-Aug-28 05:32N 29°39' E 122°28'0 0.1
2014-Aug-28 04:32N 29°40' E 122°28'0 0.1
2014-Aug-28 03:32N 29°40' E 122°28'1 1.2
2014-Aug-28 02:33N 29°40' E 122°29'1010.2
2014-Aug-28 01:33N 29°42' E 122°41'1212.0
2014-Aug-28 00:33N 29°52' E 122°50'1712.8
2014-Aug-27 23:16N 30°05' E 123°02'1013.0
2014-Aug-27 22:31N 30°14' E 123°02'1313.4
2014-Aug-27 21:33N 30°23' E 122°52'1514.5
2014-Aug-27 20:33N 30°29' E 122°36'1716.7
2014-Aug-27 19:33N 30°33' E 122°18'  

Dump ship's entire track history